createdAt,value
2018-08-19T00:00:29.349Z,13.20
2018-08-19T00:02:09.576Z,14.00
2018-08-19T00:03:45.504Z,15.80
2018-08-19T00:05:21.562Z,13.00
2018-08-19T00:07:02.895Z,7.80
2018-08-19T00:08:38.193Z,13.00
2018-08-19T00:10:14.314Z,10.80
2018-08-19T00:11:49.777Z,14.20
2018-08-19T00:13:27.476Z,12.80
2018-08-19T00:15:07.877Z,13.20
2018-08-19T00:16:43.595Z,12.80
2018-08-19T00:18:20.891Z,12.00
2018-08-19T00:19:57.353Z,12.40
2018-08-19T00:21:33.368Z,16.00
2018-08-19T00:23:10.838Z,11.60
2018-08-19T00:24:47.403Z,14.00
2018-08-19T00:26:23.691Z,13.60
2018-08-19T00:27:59.953Z,13.60
2018-08-19T00:29:38.049Z,12.60
2018-08-19T00:31:20.116Z,12.60
2018-08-19T00:32:55.774Z,14.20
2018-08-19T00:34:34.572Z,13.20
2018-08-19T00:36:28.047Z,12.60
2018-08-19T00:38:03.371Z,14.80
2018-08-19T00:39:40.121Z,12.60
2018-08-19T00:41:15.674Z,14.00
2018-08-19T00:42:52.169Z,12.40
2018-08-19T00:44:27.355Z,14.40
2018-08-19T00:46:41.112Z,14.60
2018-08-19T00:48:16.492Z,11.20
2018-08-19T00:49:56.907Z,13.00
2018-08-19T00:51:32.352Z,13.00
2018-08-19T00:53:12.523Z,11.00
2018-08-19T00:54:47.716Z,12.60
2018-08-19T00:56:23.245Z,13.00
2018-08-19T00:58:02.292Z,10.80
2018-08-19T00:59:42.237Z,12.00
2018-08-19T01:01:30.255Z,13.60
2018-08-19T01:03:07.264Z,12.60
2018-08-19T01:04:44.863Z,13.60
2018-08-19T01:06:21.082Z,13.20
2018-08-19T01:07:59.486Z,10.60
2018-08-19T01:09:36.692Z,13.00
2018-08-19T01:11:48.032Z,14.60
2018-08-19T01:13:25.017Z,14.20
2018-08-19T01:15:04.709Z,15.00
2018-08-19T01:16:40.851Z,12.80
2018-08-19T01:18:18.827Z,15.80
2018-08-19T01:19:55.062Z,13.00
2018-08-19T01:21:31.754Z,13.80
2018-08-19T01:23:07.037Z,13.40
2018-08-19T01:24:42.697Z,16.20
2018-08-19T01:26:17.721Z,14.60
2018-08-19T01:27:53.333Z,15.00
2018-08-19T01:29:35.391Z,15.80
2018-08-19T01:31:15.531Z,15.00
2018-08-19T01:32:50.920Z,14.20
2018-08-19T01:34:32.059Z,14.20
2018-08-19T01:36:07.880Z,14.60
2018-08-19T01:37:44.038Z,17.20
2018-08-19T01:39:19.631Z,10.80
2018-08-19T01:40:55.555Z,13.40
2018-08-19T01:42:30.535Z,16.00
2018-08-19T01:44:10.893Z,15.00
2018-08-19T01:45:46.428Z,12.60
2018-08-19T01:47:22.820Z,15.60
2018-08-19T01:48:58.452Z,15.00
2018-08-19T01:50:33.741Z,14.20
2018-08-19T01:52:09.106Z,13.80
2018-08-19T01:53:45.663Z,16.40
2018-08-19T01:55:21.365Z,14.20
2018-08-19T01:57:01.922Z,12.80
2018-08-19T01:58:41.094Z,13.80
2018-08-19T02:00:19.455Z,15.20
2018-08-19T02:01:59.022Z,17.60
2018-08-19T02:03:35.279Z,16.20
2018-08-19T02:05:10.463Z,16.00
2018-08-19T02:06:45.803Z,16.80
2018-08-19T02:08:22.758Z,16.60
2018-08-19T02:10:04.195Z,16.20
2018-08-19T02:11:39.926Z,15.40
2018-08-19T02:13:15.441Z,14.20
2018-08-19T02:14:50.452Z,16.00
2018-08-19T02:16:26.405Z,18.00
2018-08-19T02:18:03.643Z,15.20
2018-08-19T02:19:43.707Z,19.00
2018-08-19T02:21:19.019Z,16.80
2018-08-19T02:23:00.701Z,20.20
2018-08-19T02:24:35.659Z,18.40
2018-08-19T02:26:12.178Z,15.40
2018-08-19T02:27:49.958Z,21.60
2018-08-19T02:29:37.211Z,13.40
2018-08-19T02:31:12.265Z,21.00
2018-08-19T02:32:47.202Z,18.00
2018-08-19T02:34:26.137Z,18.80
2018-08-19T02:36:04.620Z,18.60
2018-08-19T02:37:40.036Z,17.60
2018-08-19T02:39:15.216Z,20.60
2018-08-19T02:40:53.999Z,16.00
2018-08-19T02:42:29.190Z,18.60
2018-08-19T02:44:04.899Z,17.40
2018-08-19T02:45:40.229Z,15.40
2018-08-19T02:47:15.190Z,16.40
2018-08-19T02:48:51.548Z,15.80
2018-08-19T02:50:26.755Z,15.60
2018-08-19T02:52:02.711Z,17.60
2018-08-19T02:53:38.196Z,16.60
2018-08-19T02:55:13.142Z,16.00
2018-08-19T02:56:48.103Z,13.40
2018-08-19T02:58:23.155Z,13.60
2018-08-19T03:00:04.071Z,14.20
2018-08-19T03:01:39.794Z,9.00
2018-08-19T03:03:14.968Z,11.80
2018-08-19T03:04:50.135Z,12.60
2018-08-19T03:06:25.229Z,15.80
2018-08-19T03:08:00.904Z,14.20
2018-08-19T03:09:36.105Z,12.20
2018-08-19T03:11:12.100Z,14.20
2018-08-19T03:12:47.398Z,12.00
2018-08-19T03:14:22.351Z,12.00
2018-08-19T03:15:58.639Z,15.00
2018-08-19T03:17:34.265Z,11.60
2018-08-19T03:19:09.712Z,12.40
2018-08-19T03:20:44.770Z,12.00
2018-08-19T03:22:21.343Z,12.20
2018-08-19T03:23:57.638Z,5.60
2018-08-19T03:25:34.207Z,10.60
2018-08-19T03:27:09.476Z,12.20
2018-08-19T03:28:44.694Z,13.60
2018-08-19T03:30:19.752Z,13.40
2018-08-19T03:31:59.455Z,14.20
2018-08-19T03:33:34.551Z,13.40
2018-08-19T03:35:13.598Z,16.00
2018-08-19T03:36:48.562Z,16.80
2018-08-19T03:38:26.265Z,18.00
2018-08-19T03:40:01.840Z,15.20
2018-08-19T03:41:37.097Z,13.00
2018-08-19T03:43:13.223Z,13.60
2018-08-19T03:44:48.723Z,10.80
2018-08-19T03:46:24.313Z,7.00
2018-08-19T03:47:59.827Z,9.60
2018-08-19T03:49:34.783Z,12.80
2018-08-19T03:51:11.176Z,12.80
2018-08-19T03:52:46.593Z,11.60
2018-08-19T03:54:21.951Z,14.20
2018-08-19T03:55:57.748Z,11.40
2018-08-19T03:57:32.840Z,9.60
2018-08-19T03:59:08.389Z,11.20
2018-08-19T04:00:45.756Z,12.60
2018-08-19T04:02:21.257Z,12.60
2018-08-19T04:03:56.487Z,12.80
2018-08-19T04:05:47.064Z,10.40
2018-08-19T04:07:22.035Z,12.60
2018-08-19T04:08:57.811Z,12.40
2018-08-19T04:10:33.630Z,10.00
2018-08-19T04:12:12.347Z,14.60
2018-08-19T04:13:47.311Z,13.20
2018-08-19T04:15:22.323Z,12.00
2018-08-19T04:17:00.622Z,11.20
2018-08-19T04:18:50.260Z,12.60
2018-08-19T04:20:26.318Z,13.40
2018-08-19T04:22:03.079Z,13.60
2018-08-19T04:23:42.058Z,13.60
2018-08-19T04:25:23.234Z,12.40
2018-08-19T04:26:58.238Z,10.40
2018-08-19T04:28:37.604Z,10.80
2018-08-19T04:30:14.201Z,9.20
2018-08-19T04:31:49.194Z,12.60
2018-08-19T04:33:33.778Z,11.20
2018-08-19T04:35:09.742Z,11.20
2018-08-19T04:36:44.757Z,12.80
2018-08-19T04:38:20.272Z,10.80
2018-08-19T04:39:59.309Z,9.40
2018-08-19T04:41:37.357Z,12.00
2018-08-19T04:43:12.324Z,10.00
2018-08-19T04:44:52.447Z,10.40
2018-08-19T04:46:35.567Z,7.00
2018-08-19T04:48:13.674Z,12.20
2018-08-19T04:49:49.324Z,6.20
2018-08-19T04:51:24.373Z,8.60
2018-08-19T04:52:59.257Z,13.40
2018-08-19T04:54:34.522Z,12.40
2018-08-19T04:56:09.531Z,11.60
2018-08-19T04:57:45.458Z,8.80
2018-08-19T04:59:21.451Z,12.40
2018-08-19T05:00:58.006Z,9.20
2018-08-19T05:02:34.663Z,11.20
2018-08-19T05:04:09.634Z,10.00
2018-08-19T05:05:44.527Z,8.20
2018-08-19T05:07:20.041Z,13.00
2018-08-19T05:08:54.912Z,9.40
2018-08-19T05:10:30.352Z,11.60
2018-08-19T05:12:07.306Z,7.40
2018-08-19T05:13:42.232Z,10.80
2018-08-19T05:15:17.895Z,11.80
2018-08-19T05:16:54.083Z,7.40
2018-08-19T05:18:29.340Z,12.40
2018-08-19T05:20:15.003Z,10.20
2018-08-19T05:21:50.027Z,13.00
2018-08-19T05:23:25.066Z,10.60
2018-08-19T05:25:00.144Z,10.20
2018-08-19T05:26:35.651Z,12.00
2018-08-19T05:28:10.752Z,10.00
2018-08-19T05:29:45.844Z,12.20
2018-08-19T05:31:20.792Z,12.20
2018-08-19T05:33:02.073Z,11.40
2018-08-19T05:34:40.072Z,13.40
2018-08-19T05:36:15.115Z,14.00
2018-08-19T05:37:50.180Z,13.20
2018-08-19T05:39:25.057Z,11.80
2018-08-19T05:41:01.798Z,13.00
2018-08-19T05:42:36.682Z,9.60
2018-08-19T05:44:14.610Z,13.00
2018-08-19T05:46:01.929Z,10.80
2018-08-19T05:47:38.941Z,9.20
2018-08-19T05:49:13.923Z,11.40
2018-08-19T05:50:48.838Z,11.00
2018-08-19T05:52:24.654Z,12.20
2018-08-19T05:54:01.629Z,14.00
2018-08-19T05:55:39.570Z,14.40
2018-08-19T05:57:16.834Z,11.00
2018-08-19T05:58:52.464Z,9.60
2018-08-19T06:00:28.303Z,11.40
2018-08-19T06:02:03.260Z,9.40
2018-08-19T06:03:39.727Z,11.00
2018-08-19T06:05:14.795Z,11.20
2018-08-19T06:06:51.293Z,10.20
2018-08-19T06:08:26.407Z,9.20
2018-08-19T06:10:01.445Z,11.40
2018-08-19T06:11:37.493Z,11.00
2018-08-19T06:13:14.128Z,11.60
2018-08-19T06:14:49.575Z,10.00
2018-08-19T06:16:25.241Z,13.40
2018-08-19T06:18:01.065Z,10.40
2018-08-19T06:19:36.666Z,12.60
2018-08-19T06:21:13.492Z,11.40
2018-08-19T06:22:48.587Z,13.60
2018-08-19T06:24:25.632Z,14.20
2018-08-19T06:26:00.785Z,12.60
2018-08-19T06:27:44.006Z,13.00
2018-08-19T06:29:19.123Z,12.80
2018-08-19T06:30:54.545Z,16.00
2018-08-19T06:32:32.817Z,13.40
2018-08-19T06:34:08.060Z,13.00
2018-08-19T06:35:45.748Z,14.00
2018-08-19T06:37:23.028Z,13.20
2018-08-19T06:39:00.638Z,13.00
2018-08-19T06:40:35.687Z,9.40
2018-08-19T06:42:10.671Z,10.40
2018-08-19T06:43:46.275Z,11.20
2018-08-19T06:45:22.336Z,12.40
2018-08-19T06:46:58.579Z,13.40
2018-08-19T06:48:34.146Z,12.60
2018-08-19T06:50:21.732Z,10.80
2018-08-19T06:51:57.293Z,10.80
2018-08-19T06:53:32.873Z,13.00
2018-08-19T06:55:09.695Z,10.00
2018-08-19T06:56:46.657Z,11.00
2018-08-19T06:58:23.660Z,11.40
2018-08-19T06:59:58.902Z,11.00
2018-08-19T07:01:34.049Z,10.60
2018-08-19T07:03:09.972Z,8.60
2018-08-19T07:04:51.706Z,10.00
2018-08-19T07:06:27.640Z,10.00
2018-08-19T07:08:04.620Z,9.00
2018-08-19T07:09:40.767Z,9.00
2018-08-19T07:11:17.338Z,10.20
2018-08-19T07:12:57.321Z,10.20
2018-08-19T07:14:32.480Z,10.00
2018-08-19T07:16:08.466Z,9.00
2018-08-19T07:17:44.007Z,10.60
2018-08-19T07:19:19.118Z,9.80
2018-08-19T07:20:56.257Z,8.60
2018-08-19T07:22:32.217Z,9.80
2018-08-19T07:24:09.571Z,7.40
2018-08-19T07:25:47.332Z,10.20
2018-08-19T07:27:27.529Z,7.60
2018-08-19T07:29:06.482Z,10.60
2018-08-19T07:30:44.357Z,9.60
2018-08-19T07:32:21.745Z,8.00
2018-08-19T07:33:58.478Z,6.20
2018-08-19T07:35:36.066Z,10.00
2018-08-19T07:37:13.234Z,9.40
2018-08-19T07:38:49.138Z,9.00
2018-08-19T07:40:26.736Z,6.00
2018-08-19T07:42:01.887Z,11.60
2018-08-19T07:43:37.212Z,8.20
2018-08-19T07:45:18.007Z,7.60
2018-08-19T07:46:51.800Z,10.80
2018-08-19T07:48:28.853Z,10.00
2018-08-19T07:50:06.751Z,7.60
2018-08-19T07:51:44.585Z,10.60
2018-08-19T07:53:20.092Z,11.00
2018-08-19T07:54:56.240Z,10.00
2018-08-19T07:56:31.874Z,10.00
2018-08-19T07:58:07.779Z,11.20
2018-08-19T07:59:52.712Z,8.20
2018-08-19T08:01:30.811Z,9.60
2018-08-19T08:03:06.003Z,11.60
2018-08-19T08:04:45.052Z,8.00
2018-08-19T08:06:20.297Z,7.00
2018-08-19T08:07:56.573Z,11.00
2018-08-19T08:09:32.696Z,11.20
2018-08-19T08:11:09.661Z,11.20
2018-08-19T08:12:48.995Z,11.80
2018-08-19T08:14:28.253Z,10.80
2018-08-19T08:16:04.294Z,8.20
2018-08-19T08:17:40.787Z,8.60
2018-08-19T08:19:18.020Z,9.80
2018-08-19T08:21:01.834Z,11.40
2018-08-19T08:22:38.128Z,8.20
2018-08-19T08:24:13.561Z,11.20
2018-08-19T08:25:50.215Z,8.00
2018-08-19T08:27:25.361Z,8.00
2018-08-19T08:29:06.682Z,10.20
2018-08-19T08:30:42.387Z,9.20
2018-08-19T08:32:19.260Z,8.00
2018-08-19T08:33:56.312Z,10.20
2018-08-19T08:35:32.711Z,8.60
2018-08-19T08:37:13.099Z,7.60
2018-08-19T08:38:49.281Z,7.00
2018-08-19T08:40:25.127Z,8.80
2018-08-19T08:42:01.196Z,7.80
2018-08-19T08:43:36.345Z,8.00
2018-08-19T08:45:16.549Z,7.40
2018-08-19T08:46:54.685Z,7.60
2018-08-19T08:48:30.010Z,9.00
2018-08-19T08:50:05.760Z,7.00
2018-08-19T08:51:41.812Z,8.20
2018-08-19T08:53:17.724Z,5.80
2018-08-19T08:54:57.324Z,7.60
2018-08-19T08:56:32.785Z,8.60
2018-08-19T08:58:08.514Z,8.80
2018-08-19T08:59:44.340Z,8.00
2018-08-19T09:01:23.121Z,9.20
2018-08-19T09:03:00.106Z,9.00
2018-08-19T09:04:36.956Z,6.80
2018-08-19T09:06:30.185Z,9.00
2018-08-19T09:08:06.687Z,9.00
2018-08-19T09:09:47.446Z,8.80
2018-08-19T09:11:23.747Z,7.00
2018-08-19T09:13:12.620Z,7.00
2018-08-19T09:14:58.984Z,7.40
2018-08-19T09:16:35.562Z,6.40
2018-08-19T09:18:16.867Z,8.40
2018-08-19T09:19:53.559Z,8.40
2018-08-19T09:21:30.993Z,8.60
2018-08-19T09:23:07.731Z,8.80
2018-08-19T09:24:46.923Z,7.40
2018-08-19T09:26:43.666Z,7.60
2018-08-19T09:30:35.429Z,6.00
2018-08-19T09:32:15.896Z,6.00
2018-08-19T09:33:58.418Z,7.00
2018-08-19T09:35:44.792Z,6.80
2018-08-19T09:37:23.476Z,7.60
2018-08-19T09:39:01.447Z,7.60
2018-08-19T09:42:58.816Z,7.00
2018-08-19T09:44:35.494Z,7.80
2018-08-19T09:46:11.146Z,8.00
2018-08-19T09:47:47.165Z,8.00
2018-08-19T09:49:25.535Z,8.00
2018-08-19T09:51:16.118Z,8.40
2018-08-19T09:52:55.381Z,7.00
2018-08-19T09:54:35.142Z,8.40
2018-08-19T09:56:15.377Z,9.00
2018-08-19T09:58:03.076Z,6.20
2018-08-19T09:59:46.593Z,7.80
2018-08-19T10:01:31.847Z,9.40
2018-08-19T10:03:09.007Z,7.80
2018-08-19T10:04:47.369Z,7.00
2018-08-19T10:06:22.723Z,8.20
2018-08-19T10:08:00.099Z,5.00
2018-08-19T10:09:37.032Z,7.20
2018-08-19T10:11:14.001Z,9.00
2018-08-19T10:12:49.238Z,58.00
2018-08-19T10:14:26.328Z,30.40
2018-08-19T10:16:05.586Z,29.80
2018-08-19T10:17:44.670Z,4.00
2018-08-19T10:19:22.831Z,5.00
2018-08-19T10:21:02.009Z,7.00
2018-08-19T10:22:40.969Z,8.20
2018-08-19T10:24:28.603Z,12.80
2018-08-19T10:26:05.095Z,8.00
2018-08-19T10:27:41.198Z,8.40
2018-08-19T10:29:17.399Z,11.40
2018-08-19T10:31:04.115Z,50.00
2018-08-19T10:32:39.682Z,15.20
2018-08-19T10:34:15.093Z,5.00
2018-08-19T10:35:54.123Z,9.00
2018-08-19T10:37:35.086Z,7.80
2018-08-19T10:39:17.003Z,9.80
2018-08-19T10:41:04.763Z,7.20
2018-08-19T10:42:42.544Z,7.60
2018-08-19T10:44:18.029Z,8.80
2018-08-19T10:45:54.848Z,9.20
2018-08-19T10:47:35.013Z,3.40
2018-08-19T10:49:20.164Z,7.20
2018-08-19T10:50:58.133Z,6.20
2018-08-19T10:52:36.293Z,7.40
2018-08-19T10:54:15.081Z,7.60
2018-08-19T10:55:51.575Z,7.20
2018-08-19T10:57:35.298Z,7.60
2018-08-19T10:59:13.012Z,8.00
2018-08-19T11:00:57.786Z,8.00
2018-08-19T11:02:36.828Z,7.00
2018-08-19T11:04:23.002Z,9.80
2018-08-19T11:05:59.629Z,8.40
2018-08-19T11:07:38.254Z,8.20
2018-08-19T11:09:16.081Z,5.80
2018-08-19T11:10:53.942Z,9.40
2018-08-19T11:12:34.637Z,6.60
2018-08-19T11:14:14.149Z,6.80
2018-08-19T11:15:58.577Z,6.40
2018-08-19T11:17:36.691Z,8.00
2018-08-19T11:19:17.238Z,6.20
2018-08-19T11:21:03.143Z,7.20
2018-08-19T11:22:47.569Z,8.00
2018-08-19T11:24:29.788Z,8.00
2018-08-19T11:26:14.534Z,7.00
2018-08-19T11:27:58.332Z,7.20
2018-08-19T11:29:39.675Z,7.60
2018-08-19T11:31:24.508Z,5.60
2018-08-19T11:33:02.830Z,7.80
2018-08-19T11:34:43.449Z,9.60
2018-08-19T11:36:23.144Z,6.00
2018-08-19T11:38:03.992Z,8.20
2018-08-19T11:39:46.505Z,8.80
2018-08-19T11:41:27.335Z,9.20
2018-08-19T11:43:04.245Z,9.00
2018-08-19T11:44:47.240Z,7.80
2018-08-19T11:46:24.346Z,7.60
2018-08-19T11:48:08.264Z,9.40
2018-08-19T11:49:47.465Z,6.20
2018-08-19T11:51:31.534Z,7.20
2018-08-19T11:53:09.664Z,6.60
2018-08-19T11:54:49.354Z,9.20
2018-08-19T11:56:30.378Z,7.40
2018-08-19T11:58:11.543Z,9.80
2018-08-19T11:59:48.350Z,6.80
2018-08-19T12:01:27.606Z,7.20
2018-08-19T12:03:04.523Z,5.00
2018-08-19T12:04:43.619Z,6.80
2018-08-19T12:06:23.631Z,9.20
2018-08-19T12:10:11.996Z,6.80
2018-08-19T12:11:50.231Z,7.40
2018-08-19T12:13:27.375Z,8.00
2018-08-19T12:15:06.899Z,7.40
2018-08-19T12:16:53.089Z,9.20
2018-08-19T12:18:30.054Z,7.80
2018-08-19T12:20:09.653Z,7.60
2018-08-19T12:22:03.352Z,6.00
2018-08-19T12:23:39.671Z,8.00
2018-08-19T12:25:17.544Z,7.00
2018-08-19T12:26:57.498Z,6.00
2018-08-19T12:28:40.670Z,5.60
2018-08-19T12:30:24.447Z,6.40
2018-08-19T12:32:20.581Z,7.20
2018-08-19T12:33:57.251Z,7.00
2018-08-19T12:35:39.321Z,6.20
2018-08-19T12:37:17.494Z,7.40
2018-08-19T12:38:52.814Z,8.00
2018-08-19T12:40:30.217Z,7.40
2018-08-19T12:42:20.735Z,6.20
2018-08-19T12:44:03.170Z,7.80
2018-08-19T12:45:39.476Z,7.20
2018-08-19T12:47:19.690Z,6.80
2018-08-19T12:48:57.993Z,6.80
2018-08-19T12:50:35.578Z,5.20
2018-08-19T12:52:16.715Z,5.40
2018-08-19T12:53:53.340Z,7.40
2018-08-19T12:55:30.791Z,7.40
2018-08-19T12:57:08.884Z,3.00
2018-08-19T12:58:48.681Z,9.00
2018-08-19T13:00:40.572Z,8.20
2018-08-19T13:02:19.965Z,7.20
2018-08-19T13:04:00.269Z,6.60
2018-08-19T13:05:38.538Z,6.60
2018-08-19T13:07:16.525Z,4.20
2018-08-19T13:08:57.438Z,7.20
2018-08-19T13:10:38.769Z,8.20
2018-08-19T13:12:18.349Z,6.20
2018-08-19T13:13:54.262Z,8.00
2018-08-19T13:15:36.325Z,6.40
2018-08-19T13:17:14.068Z,8.80
2018-08-19T13:18:53.644Z,7.60
2018-08-19T13:20:31.574Z,7.20
2018-08-19T13:22:07.716Z,7.40
2018-08-19T13:23:43.221Z,7.00
2018-08-19T13:25:20.482Z,7.20
2018-08-19T13:26:57.125Z,6.20
2018-08-19T13:28:34.807Z,7.20
2018-08-19T13:30:12.501Z,6.00
2018-08-19T13:31:51.328Z,7.60
2018-08-19T13:33:28.939Z,6.60
2018-08-19T13:35:04.273Z,7.40
2018-08-19T13:36:42.118Z,6.00
2018-08-19T13:38:40.456Z,7.20
2018-08-19T13:40:16.805Z,7.00
2018-08-19T13:41:57.414Z,6.60
2018-08-19T13:43:35.233Z,5.40
2018-08-19T13:45:21.172Z,5.80
2018-08-19T13:47:00.761Z,6.80
2018-08-19T13:48:39.436Z,6.60
2018-08-19T13:50:19.720Z,5.80
2018-08-19T13:51:58.374Z,7.20
2018-08-19T13:53:36.399Z,7.20
2018-08-19T13:55:20.288Z,7.20
2018-08-19T13:58:48.553Z,5.80
2018-08-19T14:00:47.064Z,8.40
2018-08-19T14:02:27.029Z,6.40
2018-08-19T14:04:05.000Z,7.80
2018-08-19T14:05:45.723Z,7.60
2018-08-19T14:07:26.405Z,7.60
2018-08-19T14:09:11.300Z,7.00
2018-08-19T14:10:51.043Z,9.60
2018-08-19T14:12:28.742Z,6.80
2018-08-19T14:14:10.237Z,7.80
2018-08-19T14:15:54.731Z,6.00
2018-08-19T14:17:33.809Z,7.20
2018-08-19T14:19:13.961Z,7.00
2018-08-19T14:20:56.170Z,4.60
2018-08-19T14:22:34.947Z,6.40
2018-08-19T14:24:19.982Z,7.60
2018-08-19T14:26:08.152Z,7.00
2018-08-19T14:27:53.110Z,5.80
2018-08-19T14:29:30.732Z,6.00
2018-08-19T14:31:08.568Z,5.40
2018-08-19T14:33:09.373Z,5.20
2018-08-19T14:34:52.302Z,6.60
2018-08-19T14:36:30.131Z,7.00
2018-08-19T14:38:10.534Z,9.40
2018-08-19T14:39:56.989Z,7.00
2018-08-19T14:41:36.122Z,7.00
2018-08-19T14:43:12.628Z,7.40
2018-08-19T14:44:53.156Z,7.20
2018-08-19T14:46:32.668Z,7.40
2018-08-19T14:48:13.276Z,7.80
2018-08-19T14:49:52.859Z,8.20
2018-08-19T14:51:43.583Z,8.80
2018-08-19T14:53:28.383Z,8.40
2018-08-19T14:55:07.042Z,7.80
2018-08-19T14:56:46.234Z,8.20
2018-08-19T14:58:30.313Z,9.40
2018-08-19T15:00:23.436Z,8.40
2018-08-19T15:02:04.627Z,8.60
2018-08-19T15:03:53.643Z,7.80
2018-08-19T15:05:33.475Z,7.00
2018-08-19T15:07:11.606Z,8.80
2018-08-19T15:08:51.966Z,7.40
2018-08-19T15:10:34.744Z,9.00
2018-08-19T15:12:17.666Z,8.00
2018-08-19T15:13:59.919Z,8.20
2018-08-19T15:15:36.558Z,6.40
2018-08-19T15:17:19.320Z,7.80
2018-08-19T15:18:58.345Z,7.80
2018-08-19T15:20:40.143Z,7.80
2018-08-19T15:22:21.366Z,9.00
2018-08-19T15:24:02.047Z,7.20
2018-08-19T15:25:41.499Z,6.00
2018-08-19T15:27:21.814Z,9.00
2018-08-19T15:28:58.870Z,9.00
2018-08-19T15:30:38.755Z,8.40
2018-08-19T15:32:17.613Z,8.20
2018-08-19T15:34:06.597Z,8.20
2018-08-19T15:35:45.329Z,8.80
2018-08-19T15:37:21.553Z,8.00
2018-08-19T15:39:01.743Z,8.60
2018-08-19T15:40:43.097Z,7.00
2018-08-19T15:42:20.820Z,9.20
2018-08-19T15:44:01.453Z,7.40
2018-08-19T15:45:42.159Z,7.20
2018-08-19T15:47:23.297Z,7.00
2018-08-19T15:49:00.019Z,9.60
2018-08-19T15:50:40.816Z,8.20
2018-08-19T15:52:21.345Z,8.40
2018-08-19T15:53:58.729Z,9.00
2018-08-19T15:55:39.669Z,10.80
2018-08-19T15:57:25.255Z,5.40
2018-08-19T15:59:07.752Z,7.20
2018-08-19T16:00:45.697Z,5.20
2018-08-19T16:02:26.381Z,7.00
2018-08-19T16:04:41.841Z,10.00
2018-08-19T16:06:32.433Z,7.00
2018-08-19T16:08:13.436Z,8.20
2018-08-19T16:09:52.042Z,8.00
2018-08-19T16:11:33.259Z,8.00
2018-08-19T16:13:15.012Z,6.40
2018-08-19T16:15:03.351Z,9.80
2018-08-19T16:16:53.352Z,8.00
2018-08-19T16:18:37.610Z,7.80
2018-08-19T16:20:23.358Z,7.00
2018-08-19T16:25:27.744Z,9.80
2018-08-19T16:27:07.800Z,4.60
2018-08-19T16:28:46.361Z,6.60
2018-08-19T16:30:26.710Z,9.00
2018-08-19T16:32:07.565Z,8.20
2018-08-19T16:33:47.523Z,8.00
2018-08-19T16:35:24.445Z,8.80
2018-08-19T16:37:04.211Z,8.00
2018-08-19T16:38:41.150Z,8.00
2018-08-19T16:40:19.302Z,6.40
2018-08-19T16:41:58.746Z,8.00
2018-08-19T16:43:37.566Z,7.80
2018-08-19T16:45:17.339Z,7.80
2018-08-19T16:46:56.827Z,6.40
2018-08-19T16:48:38.219Z,8.00
2018-08-19T16:51:58.769Z,7.80
2018-08-19T16:53:45.520Z,6.20
2018-08-19T16:55:26.561Z,7.00
2018-08-19T16:57:05.590Z,6.00
2018-08-19T16:58:43.954Z,9.40
2018-08-19T17:00:21.536Z,8.20
2018-08-19T17:02:00.958Z,6.60
2018-08-19T17:03:40.603Z,5.60
2018-08-19T17:05:33.867Z,7.60
2018-08-19T17:07:16.243Z,7.20
2018-08-19T17:08:53.298Z,6.80
2018-08-19T17:10:33.205Z,5.00
2018-08-19T17:12:11.388Z,6.40
2018-08-19T17:13:56.040Z,6.00
2018-08-19T17:15:37.497Z,7.20
2018-08-19T17:17:18.478Z,7.00
2018-08-19T17:19:04.268Z,6.60
2018-08-19T17:20:41.859Z,7.40
2018-08-19T17:22:24.612Z,7.40
2018-08-19T17:24:04.295Z,8.80
2018-08-19T17:25:47.696Z,7.00
2018-08-19T17:27:29.224Z,7.80
2018-08-19T17:29:17.182Z,9.00
2018-08-19T17:31:00.742Z,6.60
2018-08-19T17:32:44.162Z,7.00
2018-08-19T17:36:28.755Z,8.00
2018-08-19T17:38:06.704Z,7.60
2018-08-19T17:39:45.936Z,8.40
2018-08-19T17:41:23.945Z,7.60
2018-08-19T17:43:09.439Z,7.00
2018-08-19T17:44:47.087Z,7.00
2018-08-19T17:46:25.712Z,7.00
2018-08-19T17:48:04.581Z,5.00
2018-08-19T17:49:49.256Z,6.20
2018-08-19T17:51:36.865Z,6.80
2018-08-19T17:53:14.979Z,8.40
2018-08-19T17:54:53.851Z,8.60
2018-08-19T17:56:34.266Z,6.60
2018-08-19T17:58:14.786Z,6.60
2018-08-19T18:00:01.011Z,7.00
2018-08-19T18:01:46.161Z,7.40
2018-08-19T18:03:27.351Z,9.00
2018-08-19T18:05:05.721Z,7.00
2018-08-19T18:06:43.812Z,8.40
2018-08-19T18:08:25.038Z,7.00
2018-08-19T18:10:07.109Z,6.60
2018-08-19T18:11:47.189Z,8.20
2018-08-19T18:13:26.514Z,7.80
2018-08-19T18:15:10.236Z,9.80
2018-08-19T18:17:06.236Z,5.00
2018-08-19T18:20:41.407Z,7.40
2018-08-19T18:22:23.502Z,9.60
2018-08-19T18:24:09.786Z,6.20
2018-08-19T18:25:52.278Z,9.80
2018-08-19T18:27:35.782Z,12.20
2018-08-19T18:29:16.258Z,17.60
2018-08-19T18:30:59.905Z,37.20
2018-08-19T18:32:39.324Z,50.80
2018-08-19T18:36:04.755Z,36.00
2018-08-19T18:37:41.798Z,16.00
2018-08-19T18:39:25.224Z,10.00
2018-08-19T18:41:07.219Z,7.80
2018-08-19T18:42:45.485Z,9.80
2018-08-19T18:44:25.135Z,8.00
2018-08-19T18:46:01.383Z,3.00
2018-08-19T18:47:53.394Z,8.20
2018-08-19T18:49:37.507Z,7.80
2018-08-19T18:51:17.553Z,9.00
2018-08-19T18:52:59.335Z,8.00
2018-08-19T18:54:38.477Z,9.00
2018-08-19T18:56:17.813Z,9.00
2018-08-19T18:58:01.434Z,5.00
2018-08-19T18:59:43.981Z,7.80
2018-08-19T19:01:24.726Z,9.40
2018-08-19T19:03:03.144Z,8.40
2018-08-19T19:04:42.726Z,10.00
2018-08-19T19:06:20.408Z,8.80
2018-08-19T19:08:06.642Z,8.80
2018-08-19T19:09:52.725Z,8.60
2018-08-19T19:11:36.934Z,8.60
2018-08-19T19:13:14.117Z,8.00
2018-08-19T19:15:08.136Z,8.40
2018-08-19T19:17:00.462Z,8.20
2018-08-19T19:18:39.743Z,8.00
2018-08-19T19:20:19.220Z,8.80
2018-08-19T19:22:04.647Z,9.00
2018-08-19T19:23:50.811Z,7.60
2018-08-19T19:25:33.567Z,7.80
2018-08-19T19:27:15.058Z,9.40
2018-08-19T19:28:52.584Z,8.00
2018-08-19T19:30:30.576Z,8.00
2018-08-19T19:32:19.299Z,7.20
2018-08-19T19:34:07.272Z,8.80
2018-08-19T19:35:48.630Z,9.20
2018-08-19T19:37:28.366Z,7.20
2018-08-19T19:39:10.252Z,7.20
2018-08-19T19:40:52.345Z,8.40
2018-08-19T19:42:33.922Z,8.20
2018-08-19T19:44:26.461Z,8.80
2018-08-19T19:46:11.216Z,8.00
2018-08-19T19:47:46.854Z,8.60
2018-08-19T19:49:26.402Z,8.00
2018-08-19T19:51:05.408Z,6.60
2018-08-19T19:52:52.109Z,9.60
2018-08-19T19:54:31.056Z,8.20
2018-08-19T19:56:12.072Z,9.20
2018-08-19T19:57:49.179Z,8.80
2018-08-19T19:59:33.855Z,8.40
2018-08-19T20:01:13.248Z,7.80
2018-08-19T20:02:49.439Z,8.20
2018-08-19T20:04:26.805Z,8.60
2018-08-19T20:06:06.228Z,10.60
2018-08-19T20:07:45.582Z,8.20
2018-08-19T20:09:41.492Z,6.00
2018-08-19T20:11:23.377Z,10.00
2018-08-19T20:13:05.508Z,9.80
2018-08-19T20:14:46.957Z,8.20
2018-08-19T20:18:10.578Z,10.00
2018-08-19T20:19:56.489Z,10.00
2018-08-19T20:21:44.170Z,10.00
2018-08-19T20:23:25.717Z,8.40
2018-08-19T20:25:01.986Z,10.40
2018-08-19T20:26:38.566Z,8.20
2018-08-19T20:28:18.488Z,8.20
2018-08-19T20:30:00.497Z,8.20
2018-08-19T20:33:32.520Z,5.80
2018-08-19T20:35:22.738Z,9.60
2018-08-19T20:37:00.376Z,9.20
2018-08-19T20:38:38.719Z,10.00
2018-08-19T20:40:19.215Z,10.00
2018-08-19T20:42:06.209Z,8.80
2018-08-19T20:43:44.001Z,9.80
2018-08-19T20:45:20.511Z,9.40
2018-08-19T20:47:00.675Z,8.20
2018-08-19T20:48:44.959Z,9.80
2018-08-19T20:50:27.702Z,10.20
2018-08-19T20:52:09.906Z,9.60
2018-08-19T20:53:50.406Z,8.60
2018-08-19T20:55:31.460Z,9.00
2018-08-19T20:57:09.853Z,9.00
2018-08-19T20:58:46.222Z,9.00
2018-08-19T21:00:22.783Z,9.00
2018-08-19T21:02:10.564Z,9.80
2018-08-19T21:03:52.844Z,6.40
2018-08-19T21:05:30.993Z,10.00
2018-08-19T21:07:09.210Z,8.60
2018-08-19T21:08:45.867Z,10.00
2018-08-19T21:10:24.775Z,9.00
2018-08-19T21:12:06.363Z,7.80
2018-08-19T21:13:42.335Z,7.00
2018-08-19T21:15:24.210Z,10.00
2018-08-19T21:17:03.538Z,10.00
2018-08-19T21:18:42.767Z,10.40
2018-08-19T21:20:21.959Z,9.20
2018-08-19T21:21:59.670Z,7.00
2018-08-19T21:23:42.601Z,9.00
2018-08-19T21:25:22.176Z,9.20
2018-08-19T21:27:05.895Z,7.80
2018-08-19T21:32:44.649Z,7.00
2018-08-19T21:34:22.700Z,5.80
2018-08-19T21:36:02.161Z,9.60
2018-08-19T21:37:38.693Z,10.00
2018-08-19T21:39:15.842Z,10.00
2018-08-19T21:41:02.581Z,10.00
2018-08-19T21:43:02.535Z,9.60
2018-08-19T21:44:45.620Z,9.60
2018-08-19T21:46:27.977Z,10.00
2018-08-19T21:48:11.987Z,9.80
2018-08-19T21:50:02.900Z,9.40
2018-08-19T21:53:24.495Z,9.40
2018-08-19T21:55:01.667Z,8.60
2018-08-19T21:58:28.258Z,9.60
2018-08-19T22:00:10.547Z,7.00
2018-08-19T22:01:53.279Z,11.00
2018-08-19T22:03:35.448Z,8.80
2018-08-19T22:05:22.518Z,10.00
2018-08-19T22:07:05.189Z,10.00
2018-08-19T22:08:42.040Z,10.00
2018-08-19T22:10:24.661Z,9.00
2018-08-19T22:12:06.339Z,10.60
2018-08-19T22:13:46.227Z,10.00
2018-08-19T22:15:40.812Z,9.60
2018-08-19T22:17:25.265Z,11.00